Airports Italy Pisa International Airport

Pisa International Airport (LIRP / PSA)

Facts about Pisa International Airport

Name Pisa International Airport
City Pisa
Country Italy
ICAO code LIRP
IATA code PSA
Elevation 1.8288 meters (6 feet)

Weather

METAR

Metar data retrieved Friday, 19 July 2024 at 23:55 UTC (2 minutes ago)

LIRP 192315Z 24003KT CAVOK 26/25 Q1013 NOSIG

Live traffic

Navigraph Charts (account required)